createdAt,value
2022-10-31T00:00:54.351Z,51.90
2022-10-31T00:05:55.755Z,51.81
2022-10-31T00:10:57.116Z,51.84
2022-10-31T00:15:58.507Z,51.85
2022-10-31T00:21:03.107Z,51.47
2022-10-31T00:26:04.858Z,51.66
2022-10-31T00:31:07.692Z,51.62
2022-10-31T00:36:17.279Z,51.76
2022-10-31T00:41:18.736Z,51.60
2022-10-31T00:46:20.098Z,51.47
2022-10-31T00:51:21.456Z,51.33
2022-10-31T00:56:22.814Z,51.34
2022-10-31T01:01:24.310Z,51.17
2022-10-31T01:06:25.739Z,51.20
2022-10-31T01:11:27.143Z,51.38
2022-10-31T01:16:30.256Z,51.40
2022-10-31T01:21:31.649Z,51.30
2022-10-31T01:26:33.323Z,50.93
2022-10-31T01:31:36.131Z,50.81
2022-10-31T01:36:38.376Z,50.60
2022-10-31T01:41:41.875Z,50.88
2022-10-31T01:47:00.690Z,50.83
2022-10-31T01:52:05.975Z,50.96
2022-10-31T01:57:07.899Z,50.73
2022-10-31T02:02:09.422Z,50.37
2022-10-31T02:07:32.227Z,50.46
2022-10-31T02:12:33.927Z,50.55
2022-10-31T02:17:35.296Z,51.14
2022-10-31T02:23:11.397Z,51.18
2022-10-31T02:28:37.383Z,50.80
2022-10-31T02:33:58.738Z,50.92
2022-10-31T02:39:14.011Z,50.77
2022-10-31T02:44:27.556Z,50.90
2022-10-31T02:49:34.714Z,50.56
2022-10-31T02:54:36.070Z,50.39
2022-10-31T02:59:45.851Z,50.17
2022-10-31T03:04:58.722Z,50.43
2022-10-31T03:10:21.123Z,50.05
2022-10-31T03:15:24.952Z,49.91
2022-10-31T03:20:30.732Z,50.06
2022-10-31T03:25:32.094Z,49.94
2022-10-31T03:30:34.319Z,49.44
2022-10-31T03:35:35.696Z,49.60
2022-10-31T03:40:37.470Z,49.76
2022-10-31T03:45:41.850Z,49.60
2022-10-31T03:51:22.886Z,49.75
2022-10-31T03:56:38.608Z,49.17
2022-10-31T04:01:42.240Z,49.28
2022-10-31T04:06:43.820Z,49.15
2022-10-31T04:11:48.008Z,48.80
2022-10-31T04:16:49.370Z,48.91
2022-10-31T04:21:50.728Z,48.93
2022-10-31T04:26:52.104Z,48.94
2022-10-31T04:31:53.457Z,48.85
2022-10-31T04:36:54.818Z,48.90
2022-10-31T04:41:56.187Z,48.89
2022-10-31T04:46:57.543Z,48.78
2022-10-31T04:51:58.926Z,48.59
2022-10-31T04:57:00.292Z,48.80
2022-10-31T05:02:01.776Z,48.61
2022-10-31T05:07:03.212Z,48.54
2022-10-31T05:12:04.635Z,48.38
2022-10-31T05:17:05.994Z,48.55
2022-10-31T05:22:07.358Z,48.50
2022-10-31T05:27:08.730Z,48.49
2022-10-31T05:32:10.090Z,48.52
2022-10-31T05:37:11.447Z,48.14
2022-10-31T05:42:12.815Z,48.41
2022-10-31T05:47:14.171Z,48.49
2022-10-31T05:52:15.553Z,48.23
2022-10-31T05:57:16.932Z,48.16
2022-10-31T06:02:18.295Z,47.80
2022-10-31T06:07:19.707Z,47.59
2022-10-31T06:12:21.064Z,47.53
2022-10-31T06:17:22.424Z,47.20
2022-10-31T06:22:23.792Z,46.92
2022-10-31T06:27:25.188Z,47.23
2022-10-31T06:32:26.579Z,46.83
2022-10-31T06:37:27.944Z,46.88
2022-10-31T06:42:29.323Z,46.83
2022-10-31T06:47:30.693Z,46.78
2022-10-31T06:52:32.056Z,46.82
2022-10-31T06:57:33.419Z,46.81
2022-10-31T07:02:34.838Z,46.90
2022-10-31T07:07:36.252Z,46.87
2022-10-31T07:12:37.626Z,46.75
2022-10-31T07:17:39.007Z,46.80
2022-10-31T07:22:40.411Z,46.73
2022-10-31T07:27:43.015Z,46.61
2022-10-31T07:32:48.539Z,46.82
2022-10-31T07:37:49.949Z,46.47
2022-10-31T07:42:52.343Z,46.57
2022-10-31T07:47:53.727Z,46.94
2022-10-31T07:53:05.378Z,46.71
2022-10-31T07:58:08.295Z,46.72
2022-10-31T08:03:14.369Z,46.52
2022-10-31T08:08:15.804Z,46.52
2022-10-31T08:13:17.187Z,46.88
2022-10-31T08:18:18.562Z,46.91
2022-10-31T08:23:19.960Z,46.88
2022-10-31T08:28:21.332Z,47.11
2022-10-31T08:33:22.692Z,46.93
2022-10-31T08:38:24.051Z,46.90
2022-10-31T08:43:25.455Z,47.04
2022-10-31T08:48:26.819Z,46.99
2022-10-31T08:53:28.214Z,47.10
2022-10-31T08:58:29.583Z,46.66
2022-10-31T09:03:31.699Z,46.83
2022-10-31T09:08:33.394Z,47.02
2022-10-31T09:13:40.249Z,47.09
2022-10-31T09:18:42.632Z,47.09
2022-10-31T09:23:44.016Z,47.44
2022-10-31T09:28:45.777Z,47.20
2022-10-31T09:33:47.163Z,47.30
2022-10-31T09:38:48.537Z,47.49
2022-10-31T09:44:14.775Z,47.46
2022-10-31T09:49:52.121Z,47.67
2022-10-31T09:54:55.660Z,47.68
2022-10-31T09:59:57.029Z,48.05
2022-10-31T10:05:12.306Z,47.63
2022-10-31T10:10:24.280Z,47.68
2022-10-31T10:15:56.444Z,47.81
2022-10-31T10:21:11.472Z,48.10
2022-10-31T10:26:18.176Z,47.97
2022-10-31T10:31:25.339Z,48.08
2022-10-31T10:36:35.450Z,47.88
2022-10-31T10:41:36.815Z,48.14
2022-10-31T10:47:07.171Z,48.16
2022-10-31T10:52:51.331Z,48.05
2022-10-31T10:57:54.892Z,48.40
2022-10-31T11:02:56.276Z,48.25
2022-10-31T11:07:57.639Z,48.22
2022-10-31T11:13:05.074Z,48.27
2022-10-31T11:18:06.451Z,48.49
2022-10-31T11:23:27.645Z,48.57
2022-10-31T11:28:30.328Z,48.37
2022-10-31T11:33:35.804Z,48.39
2022-10-31T11:38:41.678Z,48.71
2022-10-31T11:43:52.891Z,48.59
2022-10-31T11:48:54.982Z,48.72
2022-10-31T11:54:01.856Z,48.86
2022-10-31T11:59:06.482Z,48.92
2022-10-31T12:04:11.406Z,48.90
2022-10-31T12:09:22.357Z,49.21
2022-10-31T12:14:35.859Z,48.91
2022-10-31T12:19:42.932Z,49.41
2022-10-31T12:24:55.877Z,49.44
2022-10-31T12:30:10.691Z,49.44
2022-10-31T12:35:33.539Z,49.40
2022-10-31T12:40:49.464Z,49.30
2022-10-31T12:45:55.602Z,49.60
2022-10-31T12:51:29.655Z,49.67
2022-10-31T12:56:43.632Z,49.40
2022-10-31T13:01:54.880Z,49.46
2022-10-31T13:06:59.168Z,49.49
2022-10-31T13:12:04.480Z,49.30
2022-10-31T13:17:05.927Z,49.67
2022-10-31T13:22:24.556Z,49.55
2022-10-31T13:27:36.846Z,49.63
2022-10-31T13:33:08.554Z,49.59
2022-10-31T13:38:14.851Z,49.51
2022-10-31T13:43:24.527Z,49.59
2022-10-31T13:48:25.716Z,49.58
2022-10-31T13:53:37.895Z,49.33
2022-10-31T13:58:39.267Z,49.64
2022-10-31T14:09:02.761Z,49.65
2022-10-31T14:14:04.139Z,49.95
2022-10-31T14:19:07.901Z,49.84
2022-10-31T14:24:17.759Z,50.03
2022-10-31T14:29:18.980Z,49.87
2022-10-31T14:34:36.488Z,49.94
2022-10-31T14:40:02.738Z,49.98
2022-10-31T14:45:33.480Z,49.91
2022-10-31T14:50:53.966Z,50.02
2022-10-31T14:55:56.115Z,49.83
2022-10-31T15:00:57.698Z,50.30
2022-10-31T15:06:13.407Z,49.79
2022-10-31T15:11:17.723Z,50.19
2022-10-31T15:16:21.919Z,49.93
2022-10-31T15:21:24.490Z,49.95
2022-10-31T15:26:41.335Z,50.05
2022-10-31T15:31:56.163Z,50.17
2022-10-31T15:36:57.522Z,50.24
2022-10-31T15:41:59.356Z,50.02
2022-10-31T15:47:20.041Z,50.13
2022-10-31T15:52:32.061Z,50.18
2022-10-31T15:57:33.621Z,50.30
2022-10-31T16:02:35.102Z,50.37
2022-10-31T16:07:36.519Z,49.96
2022-10-31T16:12:38.644Z,49.48
2022-10-31T16:17:41.851Z,50.01
2022-10-31T16:22:43.238Z,50.04
2022-10-31T16:27:55.238Z,49.72
2022-10-31T16:33:00.661Z,49.95
2022-10-31T16:38:02.479Z,49.83
2022-10-31T16:43:04.308Z,49.84
2022-10-31T16:48:09.751Z,49.74
2022-10-31T16:53:15.033Z,49.85
2022-10-31T16:58:24.764Z,49.94
2022-10-31T17:03:26.223Z,50.18
2022-10-31T17:08:27.599Z,49.84
2022-10-31T17:13:30.532Z,49.77
2022-10-31T17:18:32.386Z,49.90
2022-10-31T17:23:33.747Z,49.89
2022-10-31T17:28:35.111Z,49.82
2022-10-31T17:33:36.476Z,50.21
2022-10-31T17:38:38.304Z,50.00
2022-10-31T17:43:39.810Z,50.18
2022-10-31T17:48:41.652Z,50.09
2022-10-31T17:53:43.018Z,50.14
2022-10-31T17:58:44.657Z,50.52
2022-10-31T18:03:46.069Z,50.21
2022-10-31T18:08:47.555Z,50.38
2022-10-31T18:13:56.378Z,50.20
2022-10-31T18:19:01.908Z,50.18
2022-10-31T18:24:03.399Z,50.13
2022-10-31T18:29:04.772Z,50.31
2022-10-31T18:34:06.131Z,50.47
2022-10-31T18:39:07.490Z,50.33
2022-10-31T18:44:08.866Z,50.43
2022-10-31T18:49:10.585Z,50.39
2022-10-31T18:54:12.151Z,50.70
2022-10-31T18:59:13.541Z,50.47
2022-10-31T19:04:14.923Z,50.59
2022-10-31T19:09:16.283Z,50.62
2022-10-31T19:14:17.643Z,50.89
2022-10-31T19:19:20.425Z,50.66
2022-10-31T19:24:21.907Z,50.75
2022-10-31T19:29:23.290Z,50.84
2022-10-31T19:34:24.654Z,50.70
2022-10-31T19:39:27.056Z,50.40
2022-10-31T19:44:30.700Z,50.62
2022-10-31T19:49:32.103Z,50.93
2022-10-31T19:54:33.458Z,50.76
2022-10-31T19:59:39.156Z,50.65
2022-10-31T20:04:40.932Z,50.77
2022-10-31T20:09:45.024Z,50.76
2022-10-31T20:14:46.392Z,50.94
2022-10-31T20:19:47.750Z,50.69
2022-10-31T20:24:49.179Z,50.95
2022-10-31T20:29:50.539Z,50.84
2022-10-31T20:34:51.921Z,51.01
2022-10-31T20:39:55.721Z,50.99
2022-10-31T20:44:58.057Z,50.78
2022-10-31T20:49:59.419Z,50.90
2022-10-31T20:55:00.783Z,50.91
2022-10-31T21:00:02.376Z,50.91
2022-10-31T21:05:08.159Z,50.90
2022-10-31T21:10:14.634Z,50.87
2022-10-31T21:15:16.099Z,50.81
2022-10-31T21:20:17.452Z,50.87
2022-10-31T21:25:18.813Z,50.73
2022-10-31T21:30:20.223Z,50.91
2022-10-31T21:35:21.739Z,50.70
2022-10-31T21:40:23.106Z,50.90
2022-10-31T21:45:24.555Z,50.62
2022-10-31T21:50:26.030Z,50.79
2022-10-31T21:55:27.387Z,50.61
2022-10-31T22:00:28.750Z,50.77
2022-10-31T22:05:30.120Z,50.86
2022-10-31T22:10:31.479Z,50.98
2022-10-31T22:15:32.843Z,51.01
2022-10-31T22:20:34.210Z,50.90
2022-10-31T22:25:37.171Z,50.80
2022-10-31T22:30:38.632Z,50.91
2022-10-31T22:35:39.991Z,50.90
2022-10-31T22:40:41.357Z,50.95
2022-10-31T22:45:42.788Z,51.09
2022-10-31T22:50:44.162Z,51.00
2022-10-31T22:55:45.566Z,50.97
2022-10-31T23:00:46.948Z,51.06
2022-10-31T23:05:57.074Z,50.91
2022-10-31T23:10:58.431Z,50.84
2022-10-31T23:15:59.826Z,50.90
2022-10-31T23:21:01.569Z,50.83
2022-10-31T23:26:21.491Z,50.72
2022-10-31T23:31:22.850Z,51.07
2022-10-31T23:36:24.226Z,50.80
2022-10-31T23:41:25.583Z,50.91
2022-10-31T23:46:27.039Z,50.50
2022-10-31T23:51:28.567Z,50.90
2022-10-31T23:56:29.927Z,50.84
